Terminal Aerodrome Forecast
Issued by NWS

Home | Current Version | Previous Version | Text Only | Print | Product List | Glossary On
Versions: 1 2 3 4 5 6 7 8 9 10 11 12 13 14 15 16 17 18 19
000
FTUS46 KMTR 211400 AAA
TAFOAK
TAF AMD
KOAK 211456Z 2115/2218 25004KT P6SM OVC012
     FM211530 27005KT P6SM FEW020
     FM212100 30012KT P6SM SKC
     FM220300 28008KT P6SM SCT020
     FM220500 27005KT P6SM OVC015
     FM220900 25005KT P6SM OVC012=

USA.gov is the U.S. government's official web portal to all federal, state and local government web resources and services.